createdAt,value
2018-06-24T00:00:53.616Z,98697.09
2018-06-24T00:03:24.212Z,98683.83
2018-06-24T00:05:53.576Z,98684.20
2018-06-24T00:08:22.925Z,98685.08
2018-06-24T00:10:52.332Z,98685.55
2018-06-24T00:13:21.688Z,98669.67
2018-06-24T00:15:51.028Z,98674.00
2018-06-24T00:18:20.369Z,98674.44
2018-06-24T00:20:49.698Z,98670.62
2018-06-24T00:23:19.015Z,98671.05
2018-06-24T00:25:48.335Z,98668.07
2018-06-24T00:28:17.698Z,98668.48
2018-06-24T00:30:47.065Z,98668.50
2018-06-24T00:33:16.416Z,98660.77
2018-06-24T00:35:45.804Z,98662.91
2018-06-24T00:38:15.152Z,98656.92
2018-06-24T00:40:44.484Z,98660.77
2018-06-24T00:43:13.847Z,98657.36
2018-06-24T00:45:43.246Z,98658.19
2018-06-24T00:48:12.568Z,98656.06
2018-06-24T00:50:41.904Z,98664.17
2018-06-24T00:53:11.252Z,98661.61
2018-06-24T00:55:40.581Z,98665.88
2018-06-24T00:58:09.941Z,98664.14
2018-06-24T01:00:39.347Z,98666.28
2018-06-24T01:03:08.710Z,98661.11
2018-06-24T01:05:38.061Z,98656.81
2018-06-24T01:08:07.467Z,98654.69
2018-06-24T01:10:36.799Z,98649.54
2018-06-24T01:13:06.153Z,98653.83
2018-06-24T01:15:35.488Z,98644.00
2018-06-24T01:18:04.898Z,98651.69
2018-06-24T01:20:34.251Z,98643.98
2018-06-24T01:23:03.607Z,98640.55
2018-06-24T01:25:32.967Z,98646.13
2018-06-24T01:28:02.307Z,98630.30
2018-06-24T01:30:31.667Z,98629.05
2018-06-24T01:33:00.715Z,98630.73
2018-06-24T01:35:30.068Z,98627.26
2018-06-24T01:37:59.411Z,98621.30
2018-06-24T01:40:28.755Z,98623.41
2018-06-24T01:42:58.090Z,98625.15
2018-06-24T01:45:27.468Z,98628.06
2018-06-24T01:47:56.771Z,98623.78
2018-06-24T01:50:26.127Z,98622.95
2018-06-24T01:52:55.601Z,98616.56
2018-06-24T01:55:24.928Z,98620.83
2018-06-24T01:57:54.273Z,98615.28
2018-06-24T02:00:23.615Z,98610.56
2018-06-24T02:02:52.955Z,98616.92
2018-06-24T02:05:22.305Z,98613.44
2018-06-24T02:07:51.678Z,98612.55
2018-06-24T02:10:20.997Z,98609.52
2018-06-24T02:12:50.347Z,98609.99
2018-06-24T02:15:19.683Z,98615.88
2018-06-24T02:17:49.001Z,98610.78
2018-06-24T02:20:18.329Z,98604.37
2018-06-24T02:22:47.644Z,98603.57
2018-06-24T02:25:16.966Z,98600.55
2018-06-24T02:27:46.317Z,98598.92
2018-06-24T02:30:15.641Z,98596.79
2018-06-24T02:32:44.980Z,98597.69
2018-06-24T02:35:14.335Z,98601.97
2018-06-24T02:37:43.652Z,98594.67
2018-06-24T02:40:12.976Z,98597.67
2018-06-24T02:42:42.321Z,98597.23
2018-06-24T02:45:11.625Z,98596.80
2018-06-24T02:47:40.948Z,98603.19
2018-06-24T02:50:10.304Z,98601.49
2018-06-24T02:52:39.612Z,98597.67
2018-06-24T02:55:08.932Z,98591.69
2018-06-24T02:57:38.320Z,98596.41
2018-06-24T03:00:07.648Z,98589.15
2018-06-24T03:02:37.012Z,98586.58
2018-06-24T03:05:06.336Z,98589.55
2018-06-24T03:07:35.672Z,98586.56
2018-06-24T03:10:05.075Z,98585.70
2018-06-24T03:12:34.415Z,98584.01
2018-06-24T03:15:03.756Z,98581.02
2018-06-24T03:17:33.132Z,98585.73
2018-06-24T03:20:02.446Z,98584.81
2018-06-24T03:22:31.808Z,98580.58
2018-06-24T03:25:01.123Z,98581.41
2018-06-24T03:27:30.440Z,98571.61
2018-06-24T03:29:59.778Z,98566.08
2018-06-24T03:32:29.348Z,98567.74
2018-06-24T03:34:58.676Z,98574.16
2018-06-24T03:37:28.012Z,98571.51
2018-06-24T03:39:57.464Z,98568.09
2018-06-24T03:42:26.776Z,98571.56
2018-06-24T03:44:56.152Z,98571.57
2018-06-24T03:47:25.496Z,98577.16
2018-06-24T03:49:54.805Z,98576.70
2018-06-24T03:52:24.171Z,98578.86
2018-06-24T03:54:53.479Z,98576.32
2018-06-24T03:57:22.860Z,98577.62
2018-06-24T03:59:52.220Z,98584.52
2018-06-24T04:02:21.533Z,98583.67
2018-06-24T04:04:50.998Z,98582.42
2018-06-24T04:07:20.248Z,98580.73
2018-06-24T04:09:49.582Z,98585.00
2018-06-24T04:12:18.983Z,98587.99
2018-06-24T04:14:49.406Z,98584.16
2018-06-24T04:17:18.732Z,98579.89
2018-06-24T04:19:48.065Z,98583.34
2018-06-24T04:22:17.432Z,98582.05
2018-06-24T04:24:46.770Z,98578.19
2018-06-24T04:27:16.220Z,98580.77
2018-06-24T04:29:45.532Z,98585.91
2018-06-24T04:32:14.870Z,98581.63
2018-06-24T04:34:44.217Z,98595.73
2018-06-24T04:37:13.580Z,98596.58
2018-06-24T04:39:42.893Z,98594.88
2018-06-24T04:42:12.256Z,98606.42
2018-06-24T04:44:41.631Z,98601.30
2018-06-24T04:47:10.943Z,98602.58
2018-06-24T04:49:40.308Z,98600.02
2018-06-24T04:52:09.667Z,98602.98
2018-06-24T04:54:39.004Z,98598.31
2018-06-24T04:57:08.336Z,98601.28
2018-06-24T04:59:37.848Z,98597.83
2018-06-24T05:02:07.221Z,98602.05
2018-06-24T05:04:36.645Z,98594.73
2018-06-24T05:07:05.980Z,98595.61
2018-06-24T05:09:35.289Z,98601.48
2018-06-24T05:12:04.588Z,98595.91
2018-06-24T05:14:33.964Z,98589.87
2018-06-24T05:17:03.259Z,98597.54
2018-06-24T05:19:32.600Z,98593.75
2018-06-24T05:22:01.926Z,98585.17
2018-06-24T05:24:31.274Z,98585.62
2018-06-24T05:27:00.651Z,98585.18
2018-06-24T05:29:30.005Z,98587.74
2018-06-24T05:31:59.328Z,98586.91
2018-06-24T05:34:28.663Z,98588.58
2018-06-24T05:36:58.016Z,98589.03
2018-06-24T05:39:27.349Z,98582.05
2018-06-24T05:41:56.686Z,98581.69
2018-06-24T05:44:26.005Z,98585.06
2018-06-24T05:46:55.336Z,98579.06
2018-06-24T05:49:24.390Z,98574.34
2018-06-24T05:51:53.728Z,98576.98
2018-06-24T05:54:23.106Z,98570.19
2018-06-24T05:56:52.394Z,98575.55
2018-06-24T05:59:21.727Z,98568.61
2018-06-24T06:01:51.080Z,98569.47
2018-06-24T06:04:20.451Z,98571.13
2018-06-24T06:06:50.126Z,98574.89
2018-06-24T06:09:19.468Z,98580.03
2018-06-24T06:11:48.797Z,98576.81
2018-06-24T06:14:18.124Z,98577.52
2018-06-24T06:16:47.460Z,98572.73
2018-06-24T06:19:16.798Z,98575.12
2018-06-24T06:21:46.132Z,98577.67
2018-06-24T06:24:15.536Z,98577.95
2018-06-24T06:26:44.864Z,98578.16
2018-06-24T06:29:14.217Z,98571.30
2018-06-24T06:31:43.575Z,98581.92
2018-06-24T06:34:12.886Z,98575.98
2018-06-24T06:36:42.228Z,98576.57
2018-06-24T06:39:17.804Z,98582.61
2018-06-24T06:41:47.136Z,98588.80
2018-06-24T06:44:16.476Z,98581.30
2018-06-24T06:46:45.828Z,98582.47
2018-06-24T06:49:15.167Z,98575.89
2018-06-24T06:51:44.488Z,98577.78
2018-06-24T06:54:13.845Z,98585.36
2018-06-24T06:56:43.255Z,98586.88
2018-06-24T06:59:12.634Z,98583.30
2018-06-24T07:01:41.964Z,98583.95
2018-06-24T07:04:11.315Z,98585.75
2018-06-24T07:06:40.648Z,98580.23
2018-06-24T07:09:10.972Z,98585.70
2018-06-24T07:11:40.596Z,98584.73
2018-06-24T07:14:13.478Z,98578.72
2018-06-24T07:16:42.821Z,98579.33
2018-06-24T07:19:12.148Z,98581.80
2018-06-24T07:21:41.462Z,98585.06
2018-06-24T07:24:10.820Z,98587.73
2018-06-24T07:26:40.311Z,98585.27
2018-06-24T07:29:09.655Z,98588.41
2018-06-24T07:31:38.738Z,98588.31
2018-06-24T07:34:08.168Z,98582.41
2018-06-24T07:36:37.521Z,98586.27
2018-06-24T07:39:09.808Z,98582.84
2018-06-24T07:41:39.282Z,98582.03
2018-06-24T07:44:08.648Z,98579.91
2018-06-24T07:46:37.992Z,98581.84
2018-06-24T07:49:07.332Z,98589.39
2018-06-24T07:51:36.919Z,98587.62
2018-06-24T07:54:06.310Z,98584.02
2018-06-24T07:56:35.656Z,98582.98
2018-06-24T07:59:04.993Z,98584.00
2018-06-24T08:01:34.334Z,98584.19
2018-06-24T08:04:03.741Z,98589.42
2018-06-24T08:06:33.168Z,98583.89
2018-06-24T08:09:02.546Z,98578.96
2018-06-24T08:11:31.900Z,98577.70
2018-06-24T08:14:01.286Z,98575.61
2018-06-24T08:16:30.605Z,98573.78
2018-06-24T08:19:00.013Z,98580.38
2018-06-24T08:21:29.320Z,98579.72
2018-06-24T08:23:58.681Z,98572.05
2018-06-24T08:26:28.017Z,98569.54
2018-06-24T08:28:57.388Z,98573.85
2018-06-24T08:31:26.761Z,98579.57
2018-06-24T08:33:56.172Z,98574.11
2018-06-24T08:36:25.614Z,98574.61
2018-06-24T08:38:54.981Z,98561.89
2018-06-24T08:41:24.280Z,98565.16
2018-06-24T08:43:53.639Z,98568.52
2018-06-24T08:46:22.976Z,98579.15
2018-06-24T08:48:52.303Z,98577.99
2018-06-24T08:51:21.609Z,98582.23
2018-06-24T08:53:50.949Z,98587.12
2018-06-24T08:56:20.273Z,98589.66
2018-06-24T08:58:49.631Z,98582.01
2018-06-24T09:01:19.008Z,98588.45
2018-06-24T09:03:48.373Z,98588.98
2018-06-24T09:06:17.679Z,98591.45
2018-06-24T09:08:46.996Z,98583.67
2018-06-24T09:11:16.416Z,98586.83
2018-06-24T09:13:45.839Z,98588.05
2018-06-24T09:16:15.197Z,98584.57
2018-06-24T09:18:45.167Z,98588.88
2018-06-24T09:21:14.651Z,98588.23
2018-06-24T09:23:43.944Z,98591.23
2018-06-24T09:26:13.276Z,98592.09
2018-06-24T09:28:42.663Z,98595.19
2018-06-24T09:31:12.032Z,98598.78
2018-06-24T09:33:41.420Z,98593.72
2018-06-24T09:36:10.740Z,98595.92
2018-06-24T09:38:40.104Z,98593.47
2018-06-24T09:41:09.429Z,98594.84
2018-06-24T09:43:38.764Z,98589.27
2018-06-24T09:46:08.099Z,98587.09
2018-06-24T09:48:37.479Z,98583.69
2018-06-24T09:51:06.880Z,98582.01
2018-06-24T09:53:39.413Z,98583.77
2018-06-24T09:56:08.732Z,98580.22
2018-06-24T09:58:38.056Z,98582.50
2018-06-24T10:01:07.567Z,98581.42
2018-06-24T10:03:36.879Z,98576.84
2018-06-24T10:06:06.208Z,98578.14
2018-06-24T10:08:35.524Z,98572.88
2018-06-24T10:11:04.844Z,98572.02
2018-06-24T10:13:34.160Z,98567.77
2018-06-24T10:16:03.532Z,98577.25
2018-06-24T10:18:32.832Z,98578.33
2018-06-24T10:21:02.204Z,98584.41
2018-06-24T10:23:31.551Z,98578.44
2018-06-24T10:26:01.040Z,98573.56
2018-06-24T10:28:30.351Z,98575.02
2018-06-24T10:30:59.700Z,98575.10
2018-06-24T10:33:29.151Z,98573.44
2018-06-24T10:35:58.480Z,98570.66
2018-06-24T10:38:27.880Z,98560.33
2018-06-24T10:40:57.235Z,98565.25
2018-06-24T10:43:26.576Z,98561.75
2018-06-24T10:45:55.936Z,98559.82
2018-06-24T10:48:25.285Z,98564.23
2018-06-24T10:50:54.628Z,98564.91
2018-06-24T10:53:23.996Z,98571.57
2018-06-24T10:55:53.356Z,98566.16
2018-06-24T10:58:22.692Z,98557.95
2018-06-24T11:00:52.012Z,98564.73
2018-06-24T11:03:21.347Z,98564.69
2018-06-24T11:05:50.684Z,98566.87
2018-06-24T11:08:20.016Z,98562.38
2018-06-24T11:10:49.406Z,98574.01
2018-06-24T11:13:18.775Z,98569.23
2018-06-24T11:15:48.105Z,98571.76
2018-06-24T11:18:17.506Z,98573.79
2018-06-24T11:20:46.848Z,98569.23
2018-06-24T11:23:16.189Z,98577.11
2018-06-24T11:25:45.603Z,98576.95
2018-06-24T11:28:14.931Z,98587.33
2018-06-24T11:30:44.298Z,98572.73
2018-06-24T11:33:13.656Z,98576.05
2018-06-24T11:35:43.004Z,98570.22
2018-06-24T11:38:12.331Z,98573.83
2018-06-24T11:40:41.832Z,98574.24
2018-06-24T11:43:11.185Z,98574.68
2018-06-24T11:45:40.501Z,98577.13
2018-06-24T11:48:09.844Z,98571.13
2018-06-24T11:50:39.153Z,98570.08
2018-06-24T11:53:08.496Z,98567.73
2018-06-24T11:55:37.847Z,98572.69
2018-06-24T11:58:07.300Z,98568.80
2018-06-24T12:00:36.674Z,98564.95
2018-06-24T12:03:06.345Z,98559.81
2018-06-24T12:05:35.652Z,98556.03
2018-06-24T12:08:05.016Z,98554.95
2018-06-24T12:10:34.376Z,98553.80
2018-06-24T12:13:03.803Z,98550.97
2018-06-24T12:15:33.139Z,98553.85
2018-06-24T12:18:02.499Z,98553.12
2018-06-24T12:20:31.904Z,98552.10
2018-06-24T12:23:01.370Z,98557.84
2018-06-24T12:25:30.669Z,98548.47
2018-06-24T12:28:00.023Z,98553.93
2018-06-24T12:30:29.340Z,98542.53
2018-06-24T12:32:58.723Z,98538.97
2018-06-24T12:35:28.063Z,98535.17
2018-06-24T12:38:02.868Z,98534.84
2018-06-24T12:40:34.068Z,98546.69
2018-06-24T12:43:04.468Z,98555.17
2018-06-24T12:45:34.295Z,98554.94
2018-06-24T12:48:03.622Z,98546.67
2018-06-24T12:50:32.968Z,98545.84
2018-06-24T12:53:02.330Z,98546.34
2018-06-24T12:55:31.708Z,98548.34
2018-06-24T12:58:01.032Z,98552.47
2018-06-24T13:00:30.891Z,98551.26
2018-06-24T13:02:59.696Z,98540.39
2018-06-24T13:05:31.096Z,98543.27
2018-06-24T13:08:00.408Z,98537.87
2018-06-24T13:10:29.755Z,98545.71
2018-06-24T13:12:59.087Z,98541.38
2018-06-24T13:15:28.440Z,98537.09
2018-06-24T13:17:57.768Z,98539.38
2018-06-24T13:20:27.157Z,98536.78
2018-06-24T13:22:56.461Z,98527.73
2018-06-24T13:25:25.772Z,98530.78
2018-06-24T13:27:55.440Z,98534.77
2018-06-24T13:30:25.622Z,98536.34
2018-06-24T13:32:55.033Z,98534.85
2018-06-24T13:35:24.353Z,98532.31
2018-06-24T13:37:53.660Z,98524.84
2018-06-24T13:40:23.023Z,98538.13
2018-06-24T13:42:52.404Z,98532.88
2018-06-24T13:45:21.755Z,98534.84
2018-06-24T13:47:51.104Z,98529.66
2018-06-24T13:50:21.225Z,98526.33
2018-06-24T13:52:50.547Z,98525.52
2018-06-24T13:55:19.976Z,98529.59
2018-06-24T13:57:49.313Z,98532.55
2018-06-24T14:00:18.708Z,98535.30
2018-06-24T14:02:48.041Z,98534.30
2018-06-24T14:05:17.377Z,98534.62
2018-06-24T14:07:46.706Z,98526.64
2018-06-24T14:10:16.030Z,98533.09
2018-06-24T14:12:45.357Z,98527.23
2018-06-24T14:15:14.701Z,98535.92
2018-06-24T14:17:44.064Z,98532.89
2018-06-24T14:20:13.413Z,98528.67
2018-06-24T14:22:42.753Z,98534.39
2018-06-24T14:25:12.112Z,98527.37
2018-06-24T14:27:41.179Z,98530.50
2018-06-24T14:30:10.496Z,98528.13
2018-06-24T14:32:39.855Z,98530.89
2018-06-24T14:35:09.271Z,98530.72
2018-06-24T14:37:38.600Z,98532.04
2018-06-24T14:40:07.953Z,98533.92
2018-06-24T14:42:37.324Z,98533.48
2018-06-24T14:45:06.720Z,98532.79
2018-06-24T14:47:36.055Z,98528.42
2018-06-24T14:50:05.528Z,98528.33
2018-06-24T14:52:34.887Z,98523.44
2018-06-24T14:55:04.213Z,98519.54
2018-06-24T14:57:33.545Z,98523.01
2018-06-24T15:00:02.882Z,98521.95
2018-06-24T15:02:35.135Z,98519.44
2018-06-24T15:05:05.559Z,98522.14
2018-06-24T15:07:34.896Z,98517.34
2018-06-24T15:10:04.636Z,98515.54
2018-06-24T15:12:34.074Z,98517.20
2018-06-24T15:15:03.447Z,98518.38
2018-06-24T15:17:32.797Z,98517.56
2018-06-24T15:20:02.137Z,98517.92
2018-06-24T15:22:31.617Z,98521.05
2018-06-24T15:25:00.945Z,98523.20
2018-06-24T15:27:30.396Z,98517.09
2018-06-24T15:29:59.756Z,98508.16
2018-06-24T15:32:29.086Z,98517.20
2018-06-24T15:34:58.405Z,98521.17
2018-06-24T15:37:27.776Z,98514.26
2018-06-24T15:39:57.128Z,98510.48
2018-06-24T15:42:26.452Z,98510.52
2018-06-24T15:44:55.864Z,98506.31
2018-06-24T15:47:25.191Z,98504.02
2018-06-24T15:49:54.528Z,98499.91
2018-06-24T15:52:23.889Z,98502.02
2018-06-24T15:54:53.262Z,98501.27
2018-06-24T15:57:22.610Z,98494.80
2018-06-24T15:59:51.945Z,98497.05
2018-06-24T16:02:21.278Z,98492.34
2018-06-24T16:04:50.645Z,98495.78
2018-06-24T16:07:20.029Z,98488.25
2018-06-24T16:09:49.640Z,98502.06
2018-06-24T16:12:18.964Z,98495.73
2018-06-24T16:14:48.297Z,98503.28
2018-06-24T16:17:17.726Z,98500.20
2018-06-24T16:19:47.137Z,98505.40
2018-06-24T16:22:16.484Z,98494.63
2018-06-24T16:24:45.840Z,98500.20
2018-06-24T16:27:15.175Z,98492.72
2018-06-24T16:29:44.532Z,98499.25
2018-06-24T16:32:13.903Z,98491.95
2018-06-24T16:34:43.324Z,98492.63
2018-06-24T16:37:12.695Z,98495.65
2018-06-24T16:39:42.124Z,98495.72
2018-06-24T16:42:11.504Z,98499.34
2018-06-24T16:44:40.903Z,98502.98
2018-06-24T16:47:10.246Z,98498.39
2018-06-24T16:49:39.656Z,98503.05
2018-06-24T16:52:08.944Z,98505.77
2018-06-24T16:54:38.327Z,98502.86
2018-06-24T16:57:07.736Z,98507.12
2018-06-24T16:59:37.120Z,98500.59
2018-06-24T17:02:06.764Z,98506.03
2018-06-24T17:04:36.136Z,98511.52
2018-06-24T17:07:05.632Z,98508.49
2018-06-24T17:09:34.977Z,98514.02
2018-06-24T17:12:04.360Z,98508.08
2018-06-24T17:14:33.747Z,98512.11
2018-06-24T17:17:03.075Z,98499.09
2018-06-24T17:19:32.452Z,98498.77
2018-06-24T17:22:01.856Z,98500.54
2018-06-24T17:24:31.204Z,98505.39
2018-06-24T17:27:00.558Z,98507.39
2018-06-24T17:29:29.896Z,98508.36
2018-06-24T17:31:59.295Z,98511.67
2018-06-24T17:34:28.663Z,98509.25
2018-06-24T17:36:58.735Z,98505.17
2018-06-24T17:39:28.452Z,98507.81
2018-06-24T17:41:58.022Z,98505.98
2018-06-24T17:44:27.366Z,98503.04
2018-06-24T17:46:56.879Z,98509.10
2018-06-24T17:49:26.265Z,98502.95
2018-06-24T17:51:55.622Z,98501.20
2018-06-24T17:54:24.981Z,98498.38
2018-06-24T17:56:54.431Z,98501.08
2018-06-24T17:59:23.792Z,98499.30
2018-06-24T18:01:53.236Z,98501.81
2018-06-24T18:04:22.636Z,98506.03
2018-06-24T18:06:52.030Z,98503.11
2018-06-24T18:09:21.482Z,98504.02
2018-06-24T18:11:50.937Z,98505.31
2018-06-24T18:14:20.345Z,98497.84
2018-06-24T18:16:49.949Z,98496.55
2018-06-24T18:19:20.662Z,98492.02
2018-06-24T18:21:50.302Z,98487.10
2018-06-24T18:24:19.857Z,98485.55
2018-06-24T18:26:49.908Z,98486.86
2018-06-24T18:29:19.794Z,98488.59
2018-06-24T18:31:50.134Z,98496.10
2018-06-24T18:34:22.149Z,98487.04
2018-06-24T18:36:53.931Z,98485.63
2018-06-24T18:39:26.077Z,98490.02
2018-06-24T18:41:58.035Z,98494.16
2018-06-24T18:44:30.105Z,98498.73
2018-06-24T18:47:02.259Z,98496.38
2018-06-24T18:49:34.369Z,98492.28
2018-06-24T18:52:06.483Z,98492.41
2018-06-24T18:54:38.855Z,98494.63
2018-06-24T18:57:11.027Z,98500.80
2018-06-24T18:59:43.974Z,98511.43
2018-06-24T19:02:16.129Z,98511.98
2018-06-24T19:04:48.246Z,98510.84
2018-06-24T19:07:19.596Z,98514.37
2018-06-24T19:09:51.845Z,98515.63
2018-06-24T19:12:24.004Z,98506.45
2018-06-24T19:14:56.396Z,98503.97
2018-06-24T19:17:28.559Z,98503.03
2018-06-24T19:20:00.852Z,98505.17
2018-06-24T19:22:33.015Z,98502.28
2018-06-24T19:25:05.373Z,98495.23
2018-06-24T19:27:37.504Z,98497.97
2018-06-24T19:30:09.730Z,98501.86
2018-06-24T19:32:41.910Z,98495.61
2018-06-24T19:35:14.264Z,98496.05
2018-06-24T19:37:46.505Z,98495.61
2018-06-24T19:40:18.783Z,98491.09
2018-06-24T19:42:51.440Z,98479.27
2018-06-24T19:45:23.865Z,98486.39
2018-06-24T19:47:56.078Z,98497.24
2018-06-24T19:50:28.347Z,98498.23
2018-06-24T19:53:00.571Z,98498.72
2018-06-24T19:55:32.849Z,98500.02
2018-06-24T19:58:05.093Z,98499.39
2018-06-24T20:00:37.423Z,98499.66
2018-06-24T20:03:09.683Z,98508.33
2018-06-24T20:05:41.995Z,98500.32
2018-06-24T20:08:14.174Z,98497.06
2018-06-24T20:10:46.449Z,98505.80
2018-06-24T20:13:18.566Z,98504.58
2018-06-24T20:15:50.816Z,98502.23
2018-06-24T20:18:23.334Z,98511.77
2018-06-24T20:20:55.529Z,98511.28
2018-06-24T20:23:26.990Z,98510.45
2018-06-24T20:25:59.204Z,98502.18
2018-06-24T20:28:31.357Z,98503.12
2018-06-24T20:31:04.049Z,98514.75
2018-06-24T20:33:36.392Z,98513.50
2018-06-24T20:36:08.951Z,98512.20
2018-06-24T20:38:41.033Z,98519.14
2018-06-24T20:41:13.295Z,98513.81
2018-06-24T20:43:45.351Z,98516.70
2018-06-24T20:46:18.437Z,98517.15
2018-06-24T20:48:50.387Z,98522.09
2018-06-24T20:51:22.299Z,98519.27
2018-06-24T20:53:54.199Z,98517.53
2018-06-24T20:56:26.066Z,98525.23
2018-06-24T20:58:57.424Z,98520.47
2018-06-24T21:05:03.726Z,98520.19
2018-06-24T21:07:35.061Z,98521.24
2018-06-24T21:10:05.083Z,98524.49
2018-06-24T21:12:34.581Z,98528.53
2018-06-24T21:15:04.047Z,98519.77
2018-06-24T21:17:34.296Z,98516.30
2018-06-24T21:20:03.695Z,98512.25
2018-06-24T21:22:33.154Z,98504.45
2018-06-24T21:25:02.652Z,98512.20
2018-06-24T21:27:31.988Z,98520.52
2018-06-24T21:30:01.347Z,98512.64
2018-06-24T21:32:30.698Z,98509.94
2018-06-24T21:35:00.022Z,98514.12
2018-06-24T21:37:29.409Z,98512.34
2018-06-24T21:39:58.745Z,98512.02
2018-06-24T21:42:28.095Z,98510.42
2018-06-24T21:44:57.508Z,98512.52
2018-06-24T21:47:26.893Z,98514.30
2018-06-24T21:49:56.255Z,98514.84
2018-06-24T21:52:25.607Z,98504.95
2018-06-24T21:54:54.953Z,98504.50
2018-06-24T21:57:24.301Z,98502.90
2018-06-24T21:59:53.657Z,98501.44
2018-06-24T22:02:22.993Z,98496.62
2018-06-24T22:04:52.434Z,98496.25
2018-06-24T22:07:21.812Z,98490.21
2018-06-24T22:09:51.185Z,98492.55
2018-06-24T22:12:20.543Z,98494.23
2018-06-24T22:14:49.861Z,98488.16
2018-06-24T22:17:19.201Z,98486.24
2018-06-24T22:19:48.544Z,98493.90
2018-06-24T22:22:17.884Z,98497.23
2018-06-24T22:24:47.231Z,98492.30
2018-06-24T22:27:16.605Z,98495.09
2018-06-24T22:29:45.948Z,98493.30
2018-06-24T22:32:15.332Z,98497.88
2018-06-24T22:34:44.676Z,98491.76
2018-06-24T22:37:14.008Z,98490.51
2018-06-24T22:39:43.319Z,98494.98
2018-06-24T22:42:12.664Z,98494.68
2018-06-24T22:44:41.710Z,98485.98
2018-06-24T22:47:11.192Z,98483.20
2018-06-24T22:49:40.527Z,98483.16
2018-06-24T22:52:09.865Z,98483.16
2018-06-24T22:54:39.193Z,98482.05
2018-06-24T22:57:08.571Z,98478.98
2018-06-24T22:59:55.033Z,98486.28
2018-06-24T23:02:24.401Z,98488.30
2018-06-24T23:04:53.740Z,98490.84
2018-06-24T23:07:23.098Z,98491.84
2018-06-24T23:09:52.432Z,98501.45
2018-06-24T23:12:21.749Z,98497.28
2018-06-24T23:14:51.092Z,98502.73
2018-06-24T23:17:20.426Z,98502.59
2018-06-24T23:19:49.756Z,98513.91
2018-06-24T23:22:19.064Z,98508.69
2018-06-24T23:24:48.385Z,98497.72
2018-06-24T23:27:17.700Z,98497.42
2018-06-24T23:29:47.033Z,98495.69
2018-06-24T23:32:16.440Z,98498.96
2018-06-24T23:34:45.786Z,98498.13
2018-06-24T23:37:14.839Z,98502.90
2018-06-24T23:39:44.236Z,98502.69
2018-06-24T23:42:13.549Z,98501.55
2018-06-24T23:44:42.867Z,98495.68
2018-06-24T23:47:12.320Z,98495.98
2018-06-24T23:49:41.653Z,98502.76
2018-06-24T23:52:10.996Z,98510.03
2018-06-24T23:54:40.321Z,98515.86
2018-06-24T23:57:09.653Z,98526.30
2018-06-24T23:59:39.033Z,98520.13
